createdAt,value
2016-03-05T10:59:49.799Z,315
2016-03-05T11:00:50.381Z,310
2016-03-05T11:01:50.415Z,315
2016-03-05T11:02:50.371Z,310
2016-03-05T11:03:50.388Z,315
2016-03-05T11:04:50.423Z,320
2016-03-05T11:05:54.066Z,325
2016-03-05T11:06:50.429Z,340
2016-03-05T11:07:50.415Z,355
2016-03-05T11:08:50.466Z,365
2016-03-05T11:09:50.468Z,375
2016-03-05T11:10:50.485Z,385
2016-03-05T11:11:50.317Z,390
2016-03-05T11:12:50.459Z,405
2016-03-05T11:13:50.479Z,410
2016-03-05T11:14:50.481Z,405
2016-03-05T11:15:50.468Z,405
2016-03-05T11:16:50.049Z,395
2016-03-05T11:17:50.473Z,385
2016-03-05T11:18:50.695Z,385
2016-03-05T11:19:50.509Z,380
2016-03-05T11:20:50.528Z,375
2016-03-05T11:21:50.860Z,370
2016-03-05T11:22:50.518Z,365
2016-03-05T11:23:50.506Z,355
2016-03-05T11:24:50.523Z,335
2016-03-05T11:25:50.542Z,320
2016-03-05T11:26:50.560Z,320
2016-03-05T11:27:50.547Z,315
2016-03-05T11:28:50.580Z,315
2016-03-05T11:29:50.583Z,305
2016-03-05T11:30:50.540Z,300
2016-03-05T11:31:50.574Z,295
2016-03-05T11:32:53.577Z,295
2016-03-05T11:33:50.563Z,290
2016-03-05T11:34:50.582Z,290
2016-03-05T11:35:50.615Z,285
2016-03-05T11:36:50.602Z,285
2016-03-05T11:37:50.934Z,285
2016-03-05T11:38:50.921Z,290
2016-03-05T11:39:50.611Z,305
2016-03-05T11:40:50.832Z,310
2016-03-05T11:41:50.648Z,300
2016-03-05T11:42:50.665Z,290
2016-03-05T11:43:50.074Z,280
2016-03-05T11:44:50.718Z,270
2016-03-05T11:45:50.659Z,260
2016-03-05T11:46:50.693Z,265
2016-03-05T11:47:50.664Z,250
2016-03-05T11:48:50.979Z,245
2016-03-05T11:49:50.684Z,245
2016-03-05T11:50:50.673Z,250
2016-03-05T11:51:50.861Z,260
2016-03-05T11:52:50.662Z,265
2016-03-05T11:53:50.680Z,270
2016-03-05T11:54:50.683Z,280
2016-03-05T11:55:50.700Z,290
2016-03-05T11:56:50.688Z,295
2016-03-05T11:57:51.019Z,305
2016-03-05T11:58:50.693Z,320
2016-03-05T11:59:50.728Z,325
2016-03-05T12:00:50.714Z,330
2016-03-05T12:01:53.733Z,325
2016-03-05T12:02:52.297Z,320
2016-03-05T12:03:50.972Z,315
2016-03-05T12:04:50.866Z,300
2016-03-05T12:05:50.743Z,290
2016-03-05T12:06:50.825Z,275
2016-03-05T12:07:51.093Z,260
2016-03-05T12:08:50.877Z,250
2016-03-05T12:09:51.083Z,240
2016-03-05T12:10:51.007Z,240
2016-03-05T12:11:50.759Z,235
2016-03-05T12:12:50.809Z,235
2016-03-05T12:13:51.062Z,245
2016-03-05T12:14:50.814Z,250
2016-03-05T12:15:50.896Z,260
2016-03-05T12:16:50.992Z,270
2016-03-05T12:17:50.823Z,290
2016-03-05T12:18:51.028Z,305
2016-03-05T12:19:51.031Z,320
2016-03-05T12:20:51.346Z,335
2016-03-05T12:21:50.817Z,345
2016-03-05T12:22:50.680Z,345
2016-03-05T12:23:50.995Z,350
2016-03-05T12:24:50.904Z,340
2016-03-05T12:25:50.938Z,335
2016-03-05T12:26:50.909Z,325
2016-03-05T12:27:50.880Z,310
2016-03-05T12:28:50.867Z,300
2016-03-05T12:29:51.198Z,290
2016-03-05T12:30:50.873Z,275
2016-03-05T12:31:50.892Z,270
2016-03-05T12:33:05.128Z,260
2016-03-05T12:33:50.881Z,260
2016-03-05T12:34:50.961Z,260
2016-03-05T12:35:50.933Z,255
2016-03-05T12:36:50.921Z,255
2016-03-05T12:37:50.923Z,260
2016-03-05T12:39:05.020Z,260
2016-03-05T12:39:50.929Z,260
2016-03-05T12:40:51.260Z,260
2016-03-05T12:41:51.840Z,265
2016-03-05T12:42:50.952Z,260
2016-03-05T12:43:51.033Z,260
2016-03-05T12:44:51.035Z,260
2016-03-05T12:45:51.038Z,255
2016-03-05T12:46:50.994Z,255
2016-03-05T12:47:51.029Z,255
2016-03-05T12:48:50.999Z,260
2016-03-05T12:49:51.252Z,260
2016-03-05T12:50:51.770Z,265
2016-03-05T12:51:51.243Z,275
2016-03-05T12:52:51.026Z,270
2016-03-05T12:53:51.028Z,270
2016-03-05T12:54:50.891Z,270
2016-03-05T12:55:51.081Z,270
2016-03-05T12:56:51.053Z,265
2016-03-05T12:57:51.070Z,265
2016-03-05T12:58:51.120Z,265
2016-03-05T12:59:51.389Z,260
2016-03-05T13:00:51.079Z,260
2016-03-05T13:01:51.113Z,260
2016-03-05T13:02:51.116Z,260
2016-03-05T13:03:51.102Z,260
2016-03-05T13:04:51.433Z,265
2016-03-05T13:05:51.139Z,270
2016-03-05T13:06:51.110Z,270
2016-03-05T13:07:51.145Z,275
2016-03-05T13:08:50.991Z,280
2016-03-05T13:09:51.165Z,280
2016-03-05T13:10:51.168Z,285
2016-03-05T13:11:51.155Z,290
2016-03-05T13:12:51.189Z,290
2016-03-05T13:13:51.332Z,295
2016-03-05T13:14:51.194Z,295
2016-03-05T13:15:51.197Z,295
2016-03-05T13:16:51.294Z,300
2016-03-05T13:17:51.265Z,300
2016-03-05T13:18:51.330Z,300
2016-03-05T13:19:51.223Z,305
2016-03-05T13:20:51.226Z,310
2016-03-05T13:21:51.479Z,315
2016-03-05T13:22:51.481Z,320
2016-03-05T13:23:51.391Z,325
2016-03-05T13:24:51.253Z,320
2016-03-05T13:25:51.256Z,320
2016-03-05T13:26:51.289Z,325
2016-03-05T13:27:51.354Z,325
2016-03-05T13:28:51.279Z,325
2016-03-05T13:29:51.485Z,325
2016-03-05T13:31:54.286Z,315
2016-03-05T13:32:51.321Z,310
2016-03-05T13:33:51.152Z,305
2016-03-05T13:34:51.655Z,305
2016-03-05T13:35:51.330Z,300
2016-03-05T13:36:51.333Z,295
2016-03-05T13:37:54.366Z,290
2016-03-05T13:38:51.369Z,290
2016-03-05T13:39:51.356Z,290
2016-03-05T13:40:51.358Z,285
2016-03-05T13:41:51.361Z,285
2016-03-05T13:42:51.380Z,285
2016-03-05T13:43:52.164Z,285
2016-03-05T13:44:51.432Z,285
2016-03-05T13:45:51.403Z,285
2016-03-05T13:46:51.421Z,290
2016-03-05T13:47:51.393Z,290
2016-03-05T13:48:51.443Z,295
2016-03-05T13:49:51.445Z,300
2016-03-05T13:50:51.432Z,295
2016-03-05T13:51:51.450Z,295
2016-03-05T13:52:51.454Z,300
2016-03-05T13:53:51.456Z,295
2016-03-05T13:54:51.459Z,290
2016-03-05T13:55:51.508Z,290
2016-03-05T13:56:51.479Z,290
2016-03-05T13:57:51.623Z,280
2016-03-05T13:58:51.484Z,275
2016-03-05T13:59:51.487Z,270
2016-03-05T14:00:51.522Z,270
2016-03-05T14:01:51.556Z,270
2016-03-05T14:02:51.527Z,265
2016-03-05T14:03:51.545Z,260
2016-03-05T14:04:51.533Z,255
2016-03-05T14:05:51.550Z,245
2016-03-05T14:06:51.553Z,240
2016-03-05T14:07:51.540Z,235
2016-03-05T14:08:51.559Z,225
2016-03-05T14:09:51.592Z,220
2016-03-05T14:10:51.595Z,210
2016-03-05T14:11:51.587Z,205
2016-03-05T14:12:51.590Z,200
2016-03-05T14:13:51.935Z,195
2016-03-05T14:14:51.595Z,190
2016-03-05T14:15:51.630Z,185
2016-03-05T14:16:51.632Z,180
2016-03-05T14:17:51.619Z,175
2016-03-05T14:18:51.637Z,175
2016-03-05T14:19:51.640Z,170
2016-03-05T14:20:51.642Z,170
2016-03-05T14:21:51.692Z,165
2016-03-05T14:22:51.695Z,165
2016-03-05T14:23:51.682Z,165
2016-03-05T14:24:51.654Z,160
2016-03-05T14:25:51.672Z,160
2016-03-05T14:26:51.721Z,160
2016-03-05T14:27:51.803Z,155
2016-03-05T14:28:51.664Z,155
2016-03-05T14:29:51.728Z,155
2016-03-05T14:30:54.263Z,150
2016-03-05T14:31:51.767Z,150
2016-03-05T14:32:51.691Z,150
2016-03-05T14:33:51.708Z,145
2016-03-05T14:34:51.711Z,145
2016-03-05T14:35:51.714Z,145
2016-03-05T14:36:51.733Z,140
2016-03-05T14:37:51.736Z,140
2016-03-05T14:38:53.566Z,140
2016-03-05T14:39:51.741Z,140
2016-03-05T14:40:51.743Z,140
2016-03-05T14:41:51.746Z,135
2016-03-05T14:42:51.749Z,135
2016-03-05T14:43:51.751Z,135
2016-03-05T14:44:51.082Z,135
2016-03-05T14:45:51.788Z,130
2016-03-05T14:46:51.774Z,130
2016-03-05T14:47:51.777Z,125
2016-03-05T14:48:51.796Z,125
2016-03-05T14:49:51.782Z,125
2016-03-05T14:50:51.801Z,125
2016-03-05T14:51:51.804Z,125
2016-03-05T14:52:51.807Z,125
2016-03-05T14:53:51.809Z,125
2016-03-05T14:54:51.828Z,120
2016-03-05T14:55:51.815Z,120
2016-03-05T14:56:51.834Z,120
2016-03-05T14:57:51.836Z,120
2016-03-05T14:58:51.917Z,120
2016-03-05T14:59:51.841Z,120
2016-03-05T15:00:51.844Z,115
2016-03-05T15:01:51.862Z,115
2016-03-05T15:02:51.850Z,110
2016-03-05T15:03:51.883Z,110
2016-03-05T15:04:51.855Z,105
2016-03-05T15:05:51.873Z,100
2016-03-05T15:06:51.860Z,95
2016-03-05T15:07:51.863Z,95
2016-03-05T15:08:51.866Z,90
2016-03-05T15:09:51.900Z,85
2016-03-05T15:10:51.918Z,85
2016-03-05T15:11:51.921Z,80
2016-03-05T15:12:51.891Z,80
2016-03-05T15:13:51.926Z,75
2016-03-05T15:14:51.913Z,75
2016-03-05T15:15:51.916Z,75
2016-03-05T15:16:52.059Z,75
2016-03-05T15:17:51.921Z,75
2016-03-05T15:18:51.939Z,75
2016-03-05T15:19:51.926Z,75
2016-03-05T15:20:51.945Z,75
2016-03-05T15:21:51.931Z,75
2016-03-05T15:22:52.247Z,75
2016-03-05T15:23:51.984Z,75
2016-03-05T15:24:51.939Z,70
2016-03-05T15:25:51.943Z,70
2016-03-05T15:26:51.976Z,70
2016-03-05T15:27:51.964Z,70
2016-03-05T15:28:52.247Z,70
2016-03-05T15:29:51.984Z,65
2016-03-05T15:30:52.003Z,65
2016-03-05T15:31:51.974Z,65
2016-03-05T15:32:51.977Z,60
2016-03-05T15:33:52.026Z,60
2016-03-05T15:34:52.014Z,60
2016-03-05T15:35:52.000Z,60
2016-03-05T15:36:51.988Z,60
2016-03-05T15:37:51.990Z,55
2016-03-05T15:38:52.290Z,55
2016-03-05T15:39:52.012Z,55
2016-03-05T15:40:52.030Z,50
2016-03-05T15:41:52.016Z,50
2016-03-05T15:42:52.035Z,50
2016-03-05T15:43:52.021Z,50
2016-03-05T15:44:52.275Z,45
2016-03-05T15:45:52.027Z,45
2016-03-05T15:46:52.093Z,45
2016-03-05T15:47:52.032Z,45
2016-03-05T15:48:52.036Z,40
2016-03-05T15:49:52.054Z,40
2016-03-05T15:50:52.354Z,40
2016-03-05T15:51:52.043Z,40
2016-03-05T15:52:52.046Z,40
2016-03-05T15:53:52.034Z,40
2016-03-05T15:54:52.068Z,40
2016-03-05T15:55:52.039Z,35
2016-03-05T15:56:52.041Z,35
2016-03-05T15:57:52.075Z,35
2016-03-05T15:58:52.110Z,35
2016-03-05T15:59:52.065Z,35
2016-03-05T16:00:52.084Z,30
2016-03-05T16:01:52.055Z,30
2016-03-05T16:02:52.088Z,30
2016-03-05T16:03:52.076Z,30
2016-03-05T16:04:52.094Z,30
2016-03-05T16:05:52.081Z,30
2016-03-05T16:06:52.083Z,30
2016-03-05T16:07:51.947Z,30
2016-03-05T16:08:51.964Z,30
2016-03-05T16:09:51.952Z,30
2016-03-05T16:10:52.110Z,30
2016-03-05T16:11:53.629Z,30
2016-03-05T16:12:51.944Z,30
2016-03-05T16:13:52.103Z,30
2016-03-05T16:14:52.121Z,30
2016-03-05T16:15:52.108Z,25
2016-03-05T16:16:52.142Z,25
2016-03-05T16:17:51.427Z,25
2016-03-05T16:18:52.179Z,25
2016-03-05T16:19:52.134Z,25
2016-03-05T16:20:52.138Z,20
2016-03-05T16:21:52.234Z,20
2016-03-05T16:22:52.237Z,20
2016-03-05T16:23:52.176Z,20
2016-03-05T16:24:52.164Z,20
2016-03-05T16:25:52.151Z,15
2016-03-05T16:26:52.138Z,15
2016-03-05T16:27:52.156Z,15
2016-03-05T16:28:52.142Z,15
2016-03-05T16:29:52.146Z,15
2016-03-05T16:30:52.196Z,15
2016-03-05T16:31:52.167Z,10
2016-03-05T16:32:52.200Z,10
2016-03-05T16:33:52.173Z,10
2016-03-05T16:34:52.612Z,10
2016-03-05T16:35:53.678Z,10
2016-03-05T16:36:52.180Z,10
2016-03-05T16:37:52.198Z,10
2016-03-05T16:38:52.185Z,5
2016-03-05T16:39:52.251Z,5
2016-03-05T16:40:52.160Z,5
2016-03-05T16:41:52.193Z,5
2016-03-05T16:42:52.181Z,5
2016-03-05T16:43:52.231Z,5
2016-03-05T16:44:52.217Z,5
2016-03-05T16:45:52.173Z,5
2016-03-05T16:46:52.192Z,5
2016-03-05T16:47:52.193Z,5
2016-03-05T16:48:52.197Z,5
2016-03-05T16:49:52.215Z,0
2016-03-05T16:50:52.218Z,0
2016-03-05T16:51:52.221Z,0
2016-03-05T16:52:52.208Z,0
2016-03-05T16:53:52.226Z,0
2016-03-05T16:54:52.197Z,0
2016-03-05T16:55:52.216Z,0
2016-03-05T16:56:52.218Z,0
2016-03-05T16:57:53.893Z,0
2016-03-05T16:58:53.254Z,0
2016-03-05T16:59:52.211Z,0
2016-03-05T17:00:52.214Z,0
2016-03-05T17:01:52.622Z,0
2016-03-05T17:02:52.578Z,0
2016-03-05T17:03:52.596Z,0
2016-03-05T17:04:52.725Z,0
2016-03-05T17:07:13.995Z,0
2016-03-05T17:07:26.685Z,0
2016-03-05T17:08:27.126Z,0
2016-03-05T17:09:26.863Z,0
2016-03-05T17:10:26.772Z,0
2016-03-05T17:13:14.402Z,0
2016-03-05T17:14:15.329Z,0
2016-03-05T17:15:13.422Z,0
2016-03-05T17:16:13.441Z,0
2016-03-05T17:17:13.460Z,0
2016-03-05T17:22:05.160Z,0
2016-03-05T17:22:17.944Z,0
2016-03-05T17:23:17.869Z,0
2016-03-05T17:24:17.871Z,0
2016-03-05T17:25:17.890Z,0
2016-03-05T17:26:17.862Z,0
2016-03-05T17:27:17.864Z,0
2016-03-05T17:28:17.867Z,0
2016-03-05T17:29:17.870Z,0
2016-03-05T17:30:17.716Z,0
2016-03-05T17:31:17.875Z,0
2016-03-05T17:32:17.893Z,0
2016-03-05T17:33:17.912Z,0
2016-03-05T17:34:17.883Z,0
2016-03-05T17:35:17.714Z,0
2016-03-05T17:36:17.888Z,0
2016-03-05T17:37:17.907Z,0
2016-03-05T17:38:17.878Z,0
2016-03-05T17:39:17.912Z,0
2016-03-05T17:40:17.914Z,0
2016-03-05T17:41:17.886Z,0
2016-03-05T17:42:17.889Z,0
2016-03-05T17:43:17.735Z,0
2016-03-05T17:44:17.879Z,0
2016-03-05T17:45:17.913Z,0
2016-03-05T17:46:17.892Z,0
2016-03-05T17:47:17.895Z,0
2016-03-05T17:48:17.898Z,0
2016-03-05T17:49:17.886Z,0
2016-03-05T17:50:17.935Z,0
2016-03-05T17:51:17.891Z,0
2016-03-05T17:52:17.894Z,0
2016-03-05T17:53:18.349Z,0
2016-03-05T17:54:17.899Z,0
2016-03-05T17:55:17.932Z,0
2016-03-05T17:56:17.904Z,0
2016-03-05T17:57:17.922Z,0
2016-03-05T17:58:17.800Z,0
2016-03-05T17:59:17.912Z,0
2016-03-05T18:00:20.930Z,0
2016-03-05T18:01:17.918Z,0
2016-03-05T18:02:19.482Z,0
2016-03-05T18:03:17.423Z,0
2016-03-05T18:04:17.941Z,0
2016-03-05T18:05:17.975Z,0
2016-03-05T18:06:17.946Z,0
2016-03-05T18:07:17.934Z,0
2016-03-05T18:08:17.952Z,0
2016-03-05T18:09:17.923Z,0
2016-03-05T18:10:17.942Z,0
2016-03-05T18:11:17.928Z,0
2016-03-05T18:12:17.979Z,0
2016-03-05T18:13:17.965Z,0
2016-03-05T18:14:17.952Z,0
2016-03-05T18:15:17.956Z,0
2016-03-05T18:16:17.943Z,0
2016-03-05T18:17:17.945Z,0
2016-03-05T18:18:17.947Z,0
2016-03-05T18:19:17.935Z,0
2016-03-05T18:20:17.969Z,0
2016-03-05T18:21:17.939Z,0
2016-03-05T18:22:17.958Z,0
2016-03-05T18:23:18.008Z,0
2016-03-05T18:24:17.948Z,0
2016-03-05T18:25:17.966Z,0
2016-03-05T18:26:17.938Z,0
2016-03-05T18:27:17.972Z,0
2016-03-05T18:28:17.943Z,0
2016-03-05T18:29:18.071Z,0
2016-03-05T18:30:17.980Z,0
2016-03-05T18:31:17.952Z,0
2016-03-05T18:32:18.015Z,0
2016-03-05T18:33:17.960Z,0
2016-03-05T18:34:17.951Z,0
2016-03-05T18:35:17.942Z,0
2016-03-05T18:36:18.248Z,0
2016-03-05T18:37:17.895Z,0
2016-03-05T18:38:17.910Z,0
2016-03-05T18:39:18.127Z,0
2016-03-05T18:40:17.954Z,0
2016-03-05T18:41:17.889Z,0
2016-03-05T18:42:17.935Z,0
2016-03-05T18:43:17.874Z,0
2016-03-05T18:44:17.938Z,0
2016-03-05T18:45:17.877Z,0
2016-03-05T18:46:17.924Z,0
2016-03-05T18:47:17.894Z,0
2016-03-05T18:48:17.913Z,0
2016-03-05T18:49:17.899Z,0
2016-03-05T18:50:17.901Z,0
2016-03-05T18:51:17.904Z,0
2016-03-05T18:52:17.890Z,0
2016-03-05T18:53:17.908Z,0
2016-03-05T18:54:17.910Z,0
2016-03-05T18:55:17.897Z,0
2016-03-05T18:56:17.914Z,0
2016-03-05T18:57:18.183Z,0
2016-03-05T18:58:17.904Z,0
2016-03-05T18:59:17.892Z,0
2016-03-05T19:00:17.910Z,0
2016-03-05T19:01:17.913Z,0
2016-03-05T19:02:17.916Z,0
2016-03-05T19:03:17.980Z,0
2016-03-05T19:04:17.905Z,0
2016-03-05T19:05:17.907Z,0
2016-03-05T19:06:17.810Z,0
2016-03-05T19:07:17.923Z,0
2016-03-05T19:08:18.003Z,0
2016-03-05T19:09:17.896Z,0
2016-03-05T19:10:18.212Z,0
2016-03-05T19:11:17.901Z,0
2016-03-05T19:12:17.904Z,0
2016-03-05T19:13:17.907Z,0
2016-03-05T19:14:17.956Z,0
2016-03-05T19:15:17.976Z,0
2016-03-05T19:16:18.119Z,0
2016-03-05T19:17:18.043Z,0
2016-03-05T19:18:18.061Z,0
2016-03-05T19:19:18.095Z,0
2016-03-05T19:20:18.130Z,0
2016-03-05T19:21:18.179Z,0
2016-03-05T19:22:17.917Z,0
2016-03-05T19:23:17.919Z,0
2016-03-05T19:24:17.922Z,0
2016-03-05T19:25:17.940Z,0
2016-03-05T19:26:17.942Z,0
2016-03-05T19:27:18.241Z,0
2016-03-05T19:28:17.932Z,0
2016-03-05T19:29:17.997Z,0
2016-03-05T19:30:17.921Z,0
2016-03-05T19:31:17.925Z,0
2016-03-05T19:32:17.943Z,0
2016-03-05T19:33:17.946Z,0
2016-03-05T19:34:17.933Z,0
2016-03-05T19:35:17.921Z,0
2016-03-05T19:36:17.937Z,0
2016-03-05T19:37:22.556Z,0
2016-03-05T19:38:19.394Z,0
2016-03-05T19:39:17.926Z,0
2016-03-05T19:40:18.267Z,0
2016-03-05T19:41:17.955Z,0
2016-03-05T19:42:18.304Z,0
2016-03-05T19:43:18.197Z,0
2016-03-05T19:44:17.822Z,0
2016-03-05T19:45:17.934Z,0
2016-03-05T19:46:17.968Z,0
2016-03-05T19:47:18.190Z,0
2016-03-05T19:48:19.242Z,0
2016-03-05T19:49:19.167Z,0
2016-03-05T19:50:18.151Z,0
2016-03-05T19:51:18.469Z,0
2016-03-05T19:52:18.690Z,0
2016-03-05T19:53:17.893Z,0
2016-03-05T19:54:17.973Z,0
2016-03-05T19:55:18.401Z,0
2016-03-05T19:56:17.464Z,0
2016-03-05T19:57:18.231Z,0
2016-03-05T19:58:17.954Z,0
2016-03-05T19:59:18.144Z,0
2016-03-05T20:00:18.069Z,0
2016-03-05T20:01:17.477Z,0
2016-03-05T20:02:18.042Z,0
2016-03-05T20:03:18.358Z,0
2016-03-05T20:04:17.954Z,0
2016-03-05T20:05:17.941Z,0
2016-03-05T20:06:17.960Z,0
2016-03-05T20:07:17.994Z,0
2016-03-05T20:08:17.949Z,0
2016-03-05T20:09:17.968Z,0
2016-03-05T20:10:17.955Z,0
2016-03-05T20:11:17.957Z,0
2016-03-05T20:12:17.944Z,0
2016-03-05T20:13:17.963Z,0
2016-03-05T20:14:17.949Z,0
2016-03-05T20:15:17.985Z,0
2016-03-05T20:16:17.798Z,0
2016-03-05T20:17:17.958Z,0
2016-03-05T20:18:17.945Z,0
2016-03-05T20:19:18.009Z,0
2016-03-05T20:20:17.982Z,0
2016-03-05T20:21:18.000Z,0
2016-03-05T20:22:17.987Z,0
2016-03-05T20:23:17.959Z,0
2016-03-05T20:24:17.945Z,0
2016-03-05T20:25:17.964Z,0
2016-03-05T20:26:17.967Z,0
2016-03-05T20:27:17.969Z,0
2016-03-05T20:28:17.956Z,0
2016-03-05T20:29:17.975Z,0
2016-03-05T20:30:17.962Z,0
2016-03-05T20:31:17.964Z,0
2016-03-05T20:32:17.982Z,0
2016-03-05T20:33:17.954Z,0
2016-03-05T20:34:18.003Z,0
2016-03-05T20:35:17.959Z,0
2016-03-05T20:36:17.977Z,0
2016-03-05T20:37:19.059Z,0
2016-03-05T20:38:18.155Z,0
2016-03-05T20:39:18.079Z,0
2016-03-05T20:40:18.817Z,0
2016-03-05T20:41:19.007Z,0
2016-03-05T20:42:18.102Z,0
2016-03-05T20:43:18.388Z,0
2016-03-05T20:44:18.155Z,0
2016-03-05T20:45:18.736Z,0
2016-03-05T20:46:18.614Z,0
2016-03-05T20:47:18.679Z,0
2016-03-05T20:48:19.354Z,0
2016-03-05T20:49:18.262Z,0
2016-03-05T20:50:18.093Z,0
2016-03-05T20:51:19.127Z,0
2016-03-05T20:52:18.192Z,0
2016-03-05T20:53:18.727Z,0
2016-03-05T20:54:18.229Z,0
2016-03-05T20:55:19.528Z,0
2016-03-05T20:56:19.925Z,0
2016-03-05T20:57:19.331Z,0
2016-03-05T20:58:18.084Z,0
2016-03-05T20:59:18.133Z,0
2016-03-05T21:00:17.996Z,0
2016-03-05T21:01:18.108Z,0
2016-03-05T21:02:18.531Z,0
2016-03-05T21:03:19.081Z,0
2016-03-05T21:04:18.303Z,0
2016-03-05T21:05:18.289Z,0
2016-03-05T21:06:18.089Z,0
2016-03-05T21:07:18.452Z,0
2016-03-05T21:08:18.205Z,0
2016-03-05T21:09:18.425Z,0
2016-03-05T21:10:18.272Z,0
2016-03-05T21:11:18.041Z,0
2016-03-05T21:12:18.105Z,0
2016-03-05T21:13:20.643Z,0
2016-03-05T21:14:19.752Z,0
2016-03-05T21:15:19.113Z,0
2016-03-05T21:16:19.149Z,0
2016-03-05T21:17:17.994Z,0
2016-03-05T21:18:18.231Z,0
2016-03-05T21:19:18.796Z,0
2016-03-05T21:20:18.002Z,0
2016-03-05T21:21:17.973Z,0
2016-03-05T21:22:18.804Z,0
2016-03-05T21:23:19.307Z,0
2016-03-05T21:24:18.904Z,0
2016-03-05T21:25:18.968Z,0
2016-03-05T21:26:18.487Z,0
2016-03-05T21:27:19.928Z,0
2016-03-05T21:28:19.539Z,0
2016-03-05T21:29:18.370Z,0
2016-03-05T21:30:21.657Z,0
2016-03-05T21:31:20.316Z,0
2016-03-05T21:32:18.722Z,0
2016-03-05T21:33:18.833Z,0
2016-03-05T21:34:19.040Z,0
2016-03-05T21:35:18.417Z,0
2016-03-05T21:36:20.892Z,0
2016-03-05T21:37:20.800Z,0
2016-03-05T21:38:19.707Z,0
2016-03-05T21:39:19.413Z,0
2016-03-05T21:40:19.775Z,0
2016-03-05T21:41:18.543Z,0
2016-03-05T21:42:22.142Z,0
2016-03-05T21:43:18.767Z,0
2016-03-05T21:44:18.051Z,0
2016-03-05T21:45:19.616Z,0
2016-03-05T21:46:19.197Z,0
2016-03-05T21:47:18.169Z,0
2016-03-05T21:48:18.421Z,0
2016-03-05T21:49:18.346Z,0
2016-03-05T21:50:20.160Z,0
2016-03-05T21:51:21.994Z,0
2016-03-05T21:52:20.447Z,0
2016-03-05T21:53:20.091Z,0
2016-03-05T21:54:18.343Z,0
2016-03-05T21:55:19.221Z,0
2016-03-05T21:56:19.084Z,0
2016-03-05T21:57:18.304Z,0
2016-03-05T21:58:18.089Z,0
2016-03-05T21:59:18.326Z,0
2016-03-05T22:00:19.641Z,0
2016-03-05T22:01:18.315Z,0
2016-03-05T22:02:18.834Z,0
2016-03-05T22:03:17.946Z,0
2016-03-05T22:04:17.964Z,0
2016-03-05T22:05:17.951Z,0
2016-03-05T22:06:17.970Z,0
2016-03-05T22:07:18.003Z,0
2016-03-05T22:08:18.021Z,0
2016-03-05T22:09:17.977Z,0
2016-03-05T22:10:17.964Z,0
2016-03-05T22:11:17.967Z,0
2016-03-05T22:12:17.969Z,0
2016-03-05T22:13:18.223Z,0
2016-03-05T22:14:17.960Z,0
2016-03-05T22:15:17.946Z,0
2016-03-05T22:16:18.888Z,0
2016-03-05T22:17:18.233Z,0
2016-03-05T22:18:17.986Z,0
2016-03-05T22:19:19.161Z,0
2016-03-05T22:20:17.991Z,0
2016-03-05T22:21:18.385Z,0
2016-03-05T22:22:18.153Z,0
2016-03-05T22:23:18.031Z,0
2016-03-05T22:24:17.971Z,0
2016-03-05T22:25:17.958Z,0
2016-03-05T22:26:17.977Z,0
2016-03-05T22:27:17.979Z,0
2016-03-05T22:28:17.981Z,0
2016-03-05T22:29:17.954Z,0
2016-03-05T22:30:17.956Z,0
2016-03-05T22:31:17.958Z,0
2016-03-05T22:32:17.946Z,0
2016-03-05T22:33:17.948Z,0
2016-03-05T22:34:17.795Z,0
2016-03-05T22:35:17.954Z,0
2016-03-05T22:36:17.988Z,0
2016-03-05T22:37:17.975Z,0
2016-03-05T22:38:18.072Z,0
2016-03-05T22:39:17.949Z,0
2016-03-05T22:40:17.795Z,0
2016-03-05T22:41:17.798Z,0
2016-03-05T22:42:17.817Z,0
2016-03-05T22:44:17.994Z,0
2016-03-05T22:45:17.966Z,0
2016-03-05T22:46:18.016Z,0
2016-03-05T22:47:18.861Z,0
2016-03-05T22:48:17.958Z,0
2016-03-05T22:49:17.945Z,0
2016-03-05T22:50:17.979Z,0
2016-03-05T22:51:17.950Z,0
2016-03-05T22:52:17.953Z,0
2016-03-05T22:53:18.034Z,0
2016-03-05T22:54:17.989Z,0
2016-03-05T22:55:17.945Z,0
2016-03-05T22:56:18.182Z,0
2016-03-05T22:57:17.981Z,0
2016-03-05T22:58:17.969Z,0
2016-03-05T22:59:17.940Z,0
2016-03-05T23:00:17.942Z,0
2016-03-05T23:01:17.946Z,0
2016-03-05T23:02:17.948Z,0
2016-03-05T23:03:17.935Z,0
2016-03-05T23:04:17.939Z,0
2016-03-05T23:05:17.941Z,0
2016-03-05T23:06:17.959Z,0
2016-03-05T23:07:17.961Z,0
2016-03-05T23:08:17.964Z,0
2016-03-05T23:09:17.967Z,0
2016-03-05T23:10:17.939Z,0
2016-03-05T23:11:17.957Z,0
2016-03-05T23:12:17.960Z,0
2016-03-05T23:13:17.930Z,0
2016-03-05T23:14:17.934Z,0
2016-03-05T23:15:17.936Z,0
2016-03-05T23:16:17.938Z,0
2016-03-05T23:17:17.958Z,0
2016-03-05T23:18:17.929Z,0
2016-03-05T23:19:17.946Z,0
2016-03-05T23:20:17.950Z,0
2016-03-05T23:21:17.937Z,0
2016-03-05T23:22:17.908Z,0
2016-03-05T23:23:17.974Z,0
2016-03-05T23:24:17.929Z,0
2016-03-05T23:25:17.963Z,0
2016-03-05T23:26:17.919Z,0
2016-03-05T23:27:17.937Z,0
2016-03-05T23:28:17.971Z,0
2016-03-05T23:29:17.927Z,0
2016-03-05T23:30:17.962Z,0
2016-03-05T23:31:17.917Z,0
2016-03-05T23:32:17.919Z,0
2016-03-05T23:33:17.970Z,0
2016-03-05T23:34:17.940Z,0
2016-03-05T23:35:17.974Z,0
2016-03-05T23:36:17.931Z,0
2016-03-05T23:37:17.917Z,0
2016-03-05T23:38:17.998Z,0
2016-03-05T23:39:17.923Z,0
2016-03-05T23:40:17.925Z,0
2016-03-05T23:41:17.913Z,0
2016-03-05T23:42:17.930Z,0
2016-03-05T23:43:17.919Z,0
2016-03-05T23:44:17.921Z,0
2016-03-05T23:45:17.908Z,0
2016-03-05T23:46:17.941Z,0
2016-03-05T23:47:17.944Z,0
2016-03-05T23:48:17.759Z,0
2016-03-05T23:49:17.935Z,0
2016-03-05T23:50:17.937Z,0
2016-03-05T23:51:18.315Z,0
2016-03-05T23:52:17.957Z,0
2016-03-05T23:53:17.946Z,0
2016-03-05T23:54:17.916Z,0
2016-03-05T23:55:17.919Z,0
2016-03-05T23:56:17.921Z,0
2016-03-05T23:57:17.924Z,0
2016-03-05T23:58:17.895Z,0
2016-03-05T23:59:17.930Z,0
